createdAt,value
2022-08-27T00:01:19.325Z,5.25
2022-08-27T00:09:26.984Z,6.00
2022-08-27T00:17:35.533Z,5.53
2022-08-27T00:25:40.967Z,5.45
2022-08-27T00:33:49.487Z,4.95
2022-08-27T00:41:54.886Z,4.95
2022-08-27T00:50:06.930Z,4.55
2022-08-27T00:58:19.179Z,4.03
2022-08-27T01:06:31.404Z,4.53
2022-08-27T01:14:37.069Z,4.60
2022-08-27T01:22:51.827Z,4.45
2022-08-27T01:30:59.856Z,4.22
2022-08-27T01:39:05.520Z,5.05
2022-08-27T01:47:14.483Z,4.60
2022-08-27T01:55:23.081Z,5.28
2022-08-27T02:03:31.311Z,5.10
2022-08-27T02:11:44.704Z,4.88
2022-08-27T02:19:53.510Z,5.90
2022-08-27T02:28:00.501Z,4.88
2022-08-27T02:36:08.996Z,4.38
2022-08-27T02:44:14.476Z,4.63
2022-08-27T02:52:24.874Z,4.97
2022-08-27T03:00:32.411Z,4.32
2022-08-27T03:08:52.340Z,4.60
2022-08-27T03:17:18.883Z,5.13
2022-08-27T03:25:28.009Z,4.82
2022-08-27T03:33:36.074Z,5.15
2022-08-27T03:41:54.677Z,4.90
2022-08-27T03:50:01.050Z,5.22
2022-08-27T03:58:09.219Z,5.10
2022-08-27T04:06:14.717Z,5.72
2022-08-27T04:14:27.147Z,4.63
2022-08-27T04:22:34.032Z,5.38
2022-08-27T04:30:46.092Z,5.20
2022-08-27T04:38:51.578Z,5.70
2022-08-27T04:47:02.941Z,5.47
2022-08-27T04:55:10.106Z,4.88
2022-08-27T05:03:19.545Z,4.80
2022-08-27T05:11:27.327Z,5.78
2022-08-27T05:19:35.339Z,4.43
2022-08-27T05:27:40.854Z,5.07
2022-08-27T05:35:50.899Z,4.88
2022-08-27T05:43:56.898Z,4.55
2022-08-27T05:52:05.225Z,5.03
2022-08-27T06:00:24.491Z,5.30
2022-08-27T06:08:32.532Z,5.20
2022-08-27T06:16:38.472Z,5.85
2022-08-27T06:24:46.664Z,5.85
2022-08-27T06:32:52.101Z,5.70
2022-08-27T06:41:00.214Z,5.57
2022-08-27T06:49:05.647Z,5.57
2022-08-27T06:57:13.690Z,5.43
2022-08-27T07:05:19.418Z,5.25
2022-08-27T07:13:27.518Z,4.97
2022-08-27T07:21:33.007Z,5.00
2022-08-27T07:29:41.090Z,5.35
2022-08-27T07:37:46.852Z,5.50
2022-08-27T07:45:56.465Z,4.43
2022-08-27T07:54:02.440Z,4.95
2022-08-27T08:02:10.846Z,5.05
2022-08-27T08:10:16.587Z,4.97
2022-08-27T08:18:24.634Z,5.03
2022-08-27T08:26:30.015Z,4.32
2022-08-27T08:34:38.821Z,6.43
2022-08-27T08:42:50.693Z,5.25
2022-08-27T08:59:14.954Z,4.70
2022-08-27T09:07:38.791Z,4.63
2022-08-27T09:15:44.460Z,4.15
2022-08-27T09:24:05.498Z,4.43
2022-08-27T09:32:12.406Z,3.63
2022-08-27T09:40:30.754Z,4.25
2022-08-27T09:48:38.424Z,4.05
2022-08-27T09:56:52.078Z,4.10
2022-08-27T10:05:00.336Z,3.80
2022-08-27T10:13:12.310Z,4.13
2022-08-27T10:21:25.463Z,4.53
2022-08-27T10:29:40.853Z,4.60
2022-08-27T10:37:55.279Z,5.00
2022-08-27T10:46:13.620Z,4.40
2022-08-27T10:54:29.178Z,4.53
2022-08-27T11:02:49.653Z,4.10
2022-08-27T11:11:18.210Z,4.22
2022-08-27T11:19:34.243Z,4.82
2022-08-27T11:27:41.293Z,4.10
2022-08-27T11:36:04.211Z,4.03
2022-08-27T11:44:10.815Z,3.93
2022-08-27T11:52:26.509Z,3.08
2022-08-27T12:00:37.135Z,4.07
2022-08-27T12:08:45.263Z,4.13
2022-08-27T12:17:00.795Z,3.80
2022-08-27T12:25:09.418Z,4.45
2022-08-27T12:33:22.344Z,4.80
2022-08-27T12:41:43.935Z,3.55
2022-08-27T12:49:55.888Z,4.43
2022-08-27T12:58:15.490Z,4.30
2022-08-27T13:06:25.289Z,3.70
2022-08-27T13:14:40.498Z,5.28
2022-08-27T13:22:47.861Z,4.43
2022-08-27T13:30:56.643Z,4.03
2022-08-27T13:39:03.997Z,3.35
2022-08-27T13:47:18.179Z,4.10
2022-08-27T13:55:23.605Z,4.03
2022-08-27T14:03:34.451Z,3.75
2022-08-27T14:11:40.683Z,4.30
2022-08-27T14:19:50.200Z,3.67
2022-08-27T14:27:57.352Z,3.67
2022-08-27T14:36:06.750Z,3.20
2022-08-27T14:44:12.175Z,3.30
2022-08-27T14:52:20.226Z,4.00
2022-08-27T15:00:25.685Z,3.85
2022-08-27T15:08:34.158Z,4.53
2022-08-27T15:16:43.379Z,4.15
2022-08-27T15:24:54.641Z,3.85
2022-08-27T15:33:00.134Z,4.13
2022-08-27T15:41:10.385Z,4.13
2022-08-27T15:49:18.089Z,4.50
2022-08-27T15:57:26.298Z,4.13
2022-08-27T16:05:35.220Z,4.00
2022-08-27T16:13:44.843Z,4.03
2022-08-27T16:21:51.197Z,4.45
2022-08-27T16:29:59.522Z,4.25
2022-08-27T16:38:04.927Z,5.05
2022-08-27T16:46:13.164Z,4.90
2022-08-27T16:54:19.703Z,4.55
2022-08-27T17:02:32.476Z,4.80
2022-08-27T17:10:42.268Z,4.63
2022-08-27T17:18:51.325Z,5.40
2022-08-27T17:26:56.816Z,5.22
2022-08-27T17:35:06.304Z,10.90
2022-08-27T17:43:12.995Z,9.07
2022-08-27T17:51:21.639Z,11.18
2022-08-27T17:59:29.134Z,8.38
2022-08-27T18:07:40.141Z,7.32
2022-08-27T18:15:45.883Z,6.90
2022-08-27T18:23:54.037Z,6.22
2022-08-27T18:32:07.011Z,6.65
2022-08-27T18:40:20.353Z,6.38
2022-08-27T18:48:26.382Z,6.07
2022-08-27T18:56:35.079Z,7.05
2022-08-27T19:04:40.858Z,6.35
2022-08-27T19:12:49.426Z,7.63
2022-08-27T19:20:54.815Z,7.82
2022-08-27T19:29:03.173Z,9.60
2022-08-27T19:37:10.798Z,7.95
2022-08-27T19:45:22.905Z,9.38
2022-08-27T20:01:36.457Z,9.30
2022-08-27T20:09:44.605Z,8.52
2022-08-27T20:17:54.327Z,7.32
2022-08-27T20:26:01.369Z,7.03
2022-08-27T20:34:10.007Z,9.75
2022-08-27T20:42:15.599Z,7.38
2022-08-27T20:50:25.036Z,8.70
2022-08-27T20:58:42.791Z,7.90
2022-08-27T21:06:50.753Z,8.57
2022-08-27T21:14:56.778Z,8.48
2022-08-27T21:23:06.588Z,9.35
2022-08-27T21:31:12.486Z,8.63
2022-08-27T21:39:20.478Z,8.52
2022-08-27T21:47:26.086Z,7.60
2022-08-27T21:55:34.137Z,7.50
2022-08-27T22:03:42.204Z,6.70
2022-08-27T22:11:53.289Z,7.03
2022-08-27T22:19:59.938Z,6.25
2022-08-27T22:28:08.472Z,6.50
2022-08-27T22:36:14.206Z,6.00
2022-08-27T22:44:22.600Z,5.55
2022-08-27T22:52:28.377Z,5.72
2022-08-27T23:00:42.138Z,6.20
2022-08-27T23:08:47.517Z,6.72
2022-08-27T23:16:55.547Z,5.93
2022-08-27T23:25:13.417Z,5.68
2022-08-27T23:33:21.534Z,5.90
2022-08-27T23:41:27.175Z,6.13
2022-08-27T23:49:35.475Z,5.78
2022-08-27T23:57:41.177Z,5.15
